createdAt,value
2023-04-20T00:01:35.586Z,3.83
2023-04-20T00:04:03.173Z,3.40
2023-04-20T00:06:31.468Z,4.03
2023-04-20T00:08:59.035Z,4.10
2023-04-20T00:11:26.543Z,4.73
2023-04-20T00:13:54.071Z,4.35
2023-04-20T00:16:22.437Z,6.00
2023-04-20T00:18:49.945Z,4.40
2023-04-20T00:21:17.478Z,4.68
2023-04-20T00:23:45.043Z,5.67
2023-04-20T00:26:12.577Z,4.13
2023-04-20T00:28:40.874Z,2.60
2023-04-20T00:31:08.531Z,6.30
2023-04-20T00:33:35.987Z,3.00
2023-04-20T00:36:03.518Z,3.20
2023-04-20T00:38:32.581Z,4.37
2023-04-20T00:41:00.124Z,3.47
2023-04-20T00:43:27.640Z,3.77
2023-04-20T00:45:56.021Z,2.53
2023-04-20T00:48:23.546Z,3.83
2023-04-20T00:50:51.070Z,3.67
2023-04-20T00:53:19.373Z,3.73
2023-04-20T00:55:46.967Z,7.03
2023-04-20T00:58:15.258Z,4.07
2023-04-20T01:00:43.565Z,3.60
2023-04-20T01:03:11.233Z,3.17
2023-04-20T01:05:38.664Z,3.10
2023-04-20T01:08:06.223Z,4.23
2023-04-20T01:10:33.768Z,6.77
2023-04-20T01:13:02.058Z,4.20
2023-04-20T01:15:29.674Z,3.33
2023-04-20T01:17:57.210Z,4.00
2023-04-20T01:20:24.710Z,4.55
2023-04-20T01:22:53.023Z,3.33
2023-04-20T01:25:21.308Z,3.00
2023-04-20T01:27:49.234Z,3.63
2023-04-20T01:30:17.560Z,3.77
2023-04-20T01:32:45.199Z,4.17
2023-04-20T01:35:12.675Z,4.65
2023-04-20T01:37:40.198Z,5.97
2023-04-20T01:40:11.710Z,4.03
2023-04-20T01:42:39.252Z,4.27
2023-04-20T01:45:06.912Z,5.43
2023-04-20T01:47:34.473Z,7.13
2023-04-20T01:50:02.007Z,4.40
2023-04-20T01:52:30.275Z,10.40
2023-04-20T01:54:57.823Z,4.97
2023-04-20T01:57:26.108Z,4.87
2023-04-20T01:59:54.396Z,5.77
2023-04-20T02:02:22.270Z,4.70
2023-04-20T02:04:49.674Z,5.07
2023-04-20T02:09:39.549Z,4.03
2023-04-20T02:12:07.098Z,4.90
2023-04-20T02:14:34.610Z,5.30
2023-04-20T02:17:02.228Z,4.07
2023-04-20T02:19:29.713Z,3.73
2023-04-20T02:21:58.003Z,4.43
2023-04-20T02:24:26.560Z,6.13
2023-04-20T02:26:54.096Z,2.83
2023-04-20T02:29:21.629Z,4.80
2023-04-20T02:31:49.564Z,4.35
2023-04-20T02:34:17.221Z,3.50
2023-04-20T02:36:46.712Z,4.40
2023-04-20T02:39:14.614Z,3.60
2023-04-20T02:41:42.140Z,3.77
2023-04-20T02:44:09.680Z,4.73
2023-04-20T02:46:37.520Z,4.20
2023-04-20T02:49:04.991Z,5.10
2023-04-20T02:51:32.527Z,3.67
2023-04-20T02:54:00.142Z,5.07
2023-04-20T02:56:27.642Z,4.83
2023-04-20T02:58:55.192Z,6.07
2023-04-20T03:01:23.527Z,3.33
2023-04-20T03:03:51.264Z,4.00
2023-04-20T03:06:18.582Z,3.87
2023-04-20T03:08:46.914Z,4.97
2023-04-20T03:11:14.438Z,6.27
2023-04-20T03:13:41.966Z,4.78
2023-04-20T03:16:11.478Z,3.60
2023-04-20T03:18:38.957Z,4.90
2023-04-20T03:21:06.567Z,4.83
2023-04-20T03:23:35.953Z,5.30
2023-04-20T03:26:03.473Z,7.77
2023-04-20T03:28:31.019Z,7.13
2023-04-20T03:30:58.597Z,4.93
2023-04-20T03:33:26.118Z,6.47
2023-04-20T03:35:54.488Z,4.20
2023-04-20T03:38:22.054Z,6.07
2023-04-20T03:40:50.347Z,6.40
2023-04-20T03:43:17.907Z,6.87
2023-04-20T03:45:45.610Z,7.27
2023-04-20T03:48:13.098Z,5.33
2023-04-20T03:50:40.617Z,6.80
2023-04-20T03:53:08.248Z,5.37
2023-04-20T03:55:35.790Z,6.47
2023-04-20T03:58:04.103Z,7.63
2023-04-20T04:00:31.979Z,4.47
2023-04-20T04:02:59.681Z,6.43
2023-04-20T04:05:28.014Z,5.23
2023-04-20T04:07:56.324Z,6.20
2023-04-20T04:10:23.848Z,6.23
2023-04-20T04:12:51.795Z,5.63
2023-04-20T04:15:21.119Z,6.40
2023-04-20T04:17:48.757Z,7.00
2023-04-20T04:20:16.244Z,4.60
2023-04-20T04:22:43.839Z,5.93
2023-04-20T04:25:11.741Z,5.77
2023-04-20T04:27:39.199Z,7.10
2023-04-20T04:30:06.921Z,9.17
2023-04-20T04:32:39.566Z,4.30
2023-04-20T04:35:07.014Z,4.73
2023-04-20T04:37:37.296Z,14.47
2023-04-20T04:40:05.284Z,10.70
2023-04-20T04:42:33.606Z,8.90
2023-04-20T04:45:01.162Z,6.17
2023-04-20T04:47:28.720Z,5.90
2023-04-20T04:49:56.217Z,6.17
2023-04-20T04:52:23.804Z,6.93
2023-04-20T04:54:51.329Z,6.97
2023-04-20T04:57:18.874Z,6.27
2023-04-20T04:59:46.601Z,6.10
2023-04-20T05:02:14.208Z,7.93
2023-04-20T05:04:42.497Z,5.03
2023-04-20T05:07:12.698Z,4.37
2023-04-20T05:09:40.238Z,5.27
2023-04-20T05:12:07.843Z,6.40
2023-04-20T05:14:36.255Z,8.17
2023-04-20T05:17:03.804Z,8.80
2023-04-20T05:19:31.355Z,9.50
2023-04-20T05:21:59.069Z,10.47
2023-04-20T05:24:26.585Z,7.03
2023-04-20T05:26:54.109Z,8.20
2023-04-20T05:29:22.439Z,6.83
2023-04-20T05:31:50.031Z,8.33
2023-04-20T05:34:17.507Z,8.63
2023-04-20T05:36:45.917Z,6.77
2023-04-20T05:39:13.467Z,7.47
2023-04-20T05:41:41.768Z,6.20
2023-04-20T05:44:09.320Z,7.10
2023-04-20T05:46:36.857Z,8.43
2023-04-20T05:49:04.399Z,9.47
2023-04-20T05:51:32.750Z,10.80
2023-04-20T05:54:00.294Z,6.17
2023-04-20T05:56:27.821Z,13.27
2023-04-20T05:58:58.349Z,11.20
2023-04-20T06:01:25.885Z,9.17
2023-04-20T06:03:54.387Z,12.47
2023-04-20T06:06:21.775Z,10.73
2023-04-20T06:08:49.309Z,7.37
2023-04-20T06:11:16.821Z,6.97
2023-04-20T06:13:44.533Z,10.18
2023-04-20T06:16:12.126Z,8.63
2023-04-20T06:18:39.617Z,8.97
2023-04-20T06:21:08.234Z,7.63
2023-04-20T06:23:35.759Z,13.60
2023-04-20T06:26:04.041Z,7.10
2023-04-20T06:28:32.391Z,6.70
2023-04-20T06:30:59.970Z,7.13
2023-04-20T06:33:27.529Z,7.45
2023-04-20T06:35:56.660Z,11.30
2023-04-20T06:38:24.205Z,11.07
2023-04-20T06:40:51.736Z,10.87
2023-04-20T06:43:19.455Z,14.83
2023-04-20T06:45:46.999Z,9.60
2023-04-20T06:48:30.027Z,9.83
2023-04-20T06:50:42.110Z,6.70
2023-04-20T06:53:09.667Z,9.63
2023-04-20T06:55:37.229Z,12.80
2023-04-20T06:58:04.821Z,10.27
2023-04-20T07:00:32.348Z,8.90
2023-04-20T07:02:59.923Z,9.10
2023-04-20T07:05:28.538Z,9.50
2023-04-20T07:07:56.052Z,9.87
2023-04-20T07:10:23.618Z,15.83
2023-04-20T07:12:51.215Z,10.70
2023-04-20T07:15:18.735Z,13.87
2023-04-20T07:17:46.369Z,10.43
2023-04-20T07:20:13.903Z,10.13
2023-04-20T07:22:41.517Z,9.43
2023-04-20T07:25:09.147Z,14.18
2023-04-20T07:27:36.715Z,8.10
2023-04-20T07:30:04.263Z,14.33
2023-04-20T07:32:32.572Z,10.27
2023-04-20T07:35:01.436Z,10.20
2023-04-20T07:37:29.064Z,9.70
2023-04-20T07:39:56.606Z,11.97
2023-04-20T07:42:24.171Z,12.13
2023-04-20T07:44:51.875Z,12.77
2023-04-20T07:47:20.252Z,9.63
2023-04-20T07:49:47.856Z,11.70
2023-04-20T07:52:17.225Z,11.40
2023-04-20T07:54:44.496Z,9.73
2023-04-20T07:57:12.062Z,11.90
2023-04-20T07:59:40.419Z,10.57
2023-04-20T08:02:08.031Z,17.77
2023-04-20T08:04:35.585Z,10.97
2023-04-20T08:07:04.114Z,10.57
2023-04-20T08:09:31.408Z,10.00
2023-04-20T08:11:58.946Z,12.27
2023-04-20T08:14:26.603Z,12.50
2023-04-20T08:16:54.156Z,11.07
2023-04-20T08:19:21.654Z,10.07
2023-04-20T08:21:49.287Z,9.90
2023-04-20T08:24:17.255Z,8.60
2023-04-20T08:26:45.106Z,9.37
2023-04-20T08:29:12.690Z,9.38
2023-04-20T08:31:40.239Z,9.03
2023-04-20T08:34:07.768Z,9.97
2023-04-20T08:36:36.129Z,8.97
2023-04-20T08:39:09.546Z,9.70
2023-04-20T08:41:37.825Z,10.45
2023-04-20T08:44:06.191Z,12.60
2023-04-20T08:46:34.622Z,14.93
2023-04-20T08:49:02.014Z,9.37
2023-04-20T08:51:29.600Z,9.00
2023-04-20T08:53:57.123Z,9.00
2023-04-20T08:56:37.033Z,9.57
2023-04-20T08:59:08.166Z,8.43
2023-04-20T09:01:36.362Z,6.57
2023-04-20T09:04:04.277Z,7.33
2023-04-20T09:06:31.618Z,6.87
2023-04-20T09:08:59.136Z,6.20
2023-04-20T09:11:26.750Z,7.70
2023-04-20T09:14:03.100Z,6.63
2023-04-20T09:16:30.742Z,7.00
2023-04-20T09:18:58.178Z,7.47
2023-04-20T09:21:25.710Z,6.97
2023-04-20T09:23:59.312Z,7.90
2023-04-20T09:26:26.805Z,6.60
2023-04-20T09:28:54.340Z,6.50
2023-04-20T09:31:21.992Z,6.57
2023-04-20T09:33:58.240Z,6.17
2023-04-20T09:36:25.716Z,5.40
2023-04-20T09:39:05.583Z,6.43
2023-04-20T09:41:33.158Z,5.70
2023-04-20T09:44:00.650Z,6.67
2023-04-20T09:46:31.104Z,7.37
2023-04-20T09:48:59.400Z,7.33
2023-04-20T09:51:29.952Z,7.20
2023-04-20T09:53:57.531Z,7.07
2023-04-20T09:56:25.065Z,6.80
2023-04-20T09:58:54.855Z,7.70
2023-04-20T10:01:20.267Z,7.65
2023-04-20T10:03:47.927Z,7.10
2023-04-20T10:06:21.174Z,7.07
2023-04-20T10:08:49.465Z,8.57
2023-04-20T10:11:27.973Z,6.67
2023-04-20T10:13:54.144Z,8.83
2023-04-20T10:16:21.712Z,7.83
2023-04-20T10:19:00.865Z,7.80
2023-04-20T10:21:28.399Z,8.07
2023-04-20T10:23:55.932Z,7.00
2023-04-20T10:26:23.599Z,7.07
2023-04-20T10:28:51.128Z,5.87
2023-04-20T10:31:19.530Z,5.60
2023-04-20T10:33:50.961Z,6.50
2023-04-20T10:36:27.624Z,6.30
2023-04-20T10:38:55.192Z,6.67
2023-04-20T10:41:23.487Z,6.47
2023-04-20T10:43:51.019Z,7.03
2023-04-20T10:46:19.450Z,5.90
2023-04-20T10:48:52.290Z,5.90
2023-04-20T10:51:20.593Z,7.40
2023-04-20T10:53:48.228Z,9.77
2023-04-20T10:56:15.710Z,8.47
2023-04-20T10:58:43.219Z,7.00
2023-04-20T11:01:10.813Z,7.30
2023-04-20T11:03:38.475Z,8.18
2023-04-20T11:06:06.632Z,8.70
2023-04-20T11:08:40.959Z,8.67
2023-04-20T11:11:20.477Z,9.67
2023-04-20T11:13:48.041Z,8.20
2023-04-20T11:16:16.416Z,6.60
2023-04-20T11:18:46.895Z,10.03
2023-04-20T11:21:15.206Z,10.70
2023-04-20T11:23:42.728Z,9.37
2023-04-20T11:26:10.272Z,8.45
2023-04-20T11:28:37.870Z,7.60
2023-04-20T11:31:05.443Z,6.83
2023-04-20T11:33:32.954Z,8.50
2023-04-20T11:36:01.258Z,8.27
2023-04-20T11:38:28.820Z,9.83
2023-04-20T11:40:56.330Z,8.77
2023-04-20T11:43:24.679Z,11.40
2023-04-20T11:45:52.255Z,8.27
2023-04-20T11:48:19.794Z,7.37
2023-04-20T11:50:47.293Z,7.20
2023-04-20T11:53:14.873Z,8.10
2023-04-20T11:55:43.132Z,7.00
2023-04-20T11:58:10.673Z,7.03
2023-04-20T12:00:38.998Z,8.77
2023-04-20T12:03:06.648Z,7.00
2023-04-20T12:05:34.102Z,8.50
2023-04-20T12:08:02.369Z,7.17
2023-04-20T12:10:29.904Z,8.43
2023-04-20T12:12:58.224Z,9.80
2023-04-20T12:15:25.769Z,9.27
2023-04-20T12:17:53.313Z,8.23
2023-04-20T12:20:21.632Z,9.37
2023-04-20T12:22:49.146Z,8.70
2023-04-20T12:25:16.671Z,10.00
2023-04-20T12:27:44.291Z,7.07
2023-04-20T12:30:11.910Z,7.93
2023-04-20T12:32:39.464Z,8.87
2023-04-20T12:35:07.105Z,8.48
2023-04-20T12:37:34.636Z,8.33
2023-04-20T12:40:02.186Z,8.95
2023-04-20T12:42:30.051Z,10.33
2023-04-20T12:44:57.582Z,8.87
2023-04-20T12:47:25.899Z,7.93
2023-04-20T12:49:53.451Z,6.87
2023-04-20T12:52:20.998Z,6.87
2023-04-20T12:54:48.524Z,8.07
2023-04-20T12:57:16.883Z,7.57
2023-04-20T12:59:44.358Z,18.83
2023-04-20T13:02:12.714Z,7.17
2023-04-20T13:04:40.243Z,9.97
2023-04-20T13:07:08.507Z,6.87
2023-04-20T13:09:36.023Z,7.70
2023-04-20T13:12:04.373Z,5.90
2023-04-20T13:14:31.946Z,12.07
2023-04-20T13:16:59.508Z,6.63
2023-04-20T13:19:27.061Z,7.00
2023-04-20T13:21:54.593Z,10.80
2023-04-20T13:24:22.117Z,6.87
2023-04-20T13:26:49.794Z,6.73
2023-04-20T13:29:17.646Z,6.57
2023-04-20T13:31:45.709Z,7.50
2023-04-20T13:34:13.232Z,7.50
2023-04-20T13:36:40.780Z,5.83
2023-04-20T13:39:08.314Z,7.60
2023-04-20T13:41:35.896Z,7.93
2023-04-20T13:44:03.415Z,7.27
2023-04-20T13:46:31.134Z,5.90
2023-04-20T13:48:58.601Z,7.37
2023-04-20T13:51:26.124Z,6.57
2023-04-20T13:53:53.647Z,7.17
2023-04-20T13:56:21.265Z,7.30
2023-04-20T13:58:48.789Z,6.80
2023-04-20T14:01:16.373Z,7.18
2023-04-20T14:03:44.948Z,9.40
2023-04-20T14:06:12.209Z,6.60
2023-04-20T14:08:39.737Z,5.50
2023-04-20T14:11:07.353Z,5.97
2023-04-20T14:13:34.877Z,6.10
2023-04-20T14:16:02.473Z,7.80
2023-04-20T14:18:30.284Z,5.33
2023-04-20T14:20:57.816Z,5.50
2023-04-20T14:23:26.129Z,9.13
2023-04-20T14:25:53.714Z,6.53
2023-04-20T14:28:21.262Z,6.23
2023-04-20T14:30:48.787Z,6.30
2023-04-20T14:33:16.376Z,8.93
2023-04-20T14:35:43.898Z,6.03
2023-04-20T14:38:11.453Z,5.87
2023-04-20T14:40:39.801Z,6.63
2023-04-20T14:43:07.384Z,6.73
2023-04-20T14:45:35.700Z,6.80
2023-04-20T14:48:03.366Z,8.23
2023-04-20T14:50:30.845Z,7.17
2023-04-20T14:52:58.369Z,5.63
2023-04-20T14:55:26.272Z,6.13
2023-04-20T14:57:56.441Z,7.40
2023-04-20T15:00:26.863Z,8.13
2023-04-20T15:02:54.681Z,5.30
2023-04-20T15:05:22.204Z,7.07
2023-04-20T15:07:50.241Z,5.50
2023-04-20T15:10:18.602Z,7.40
2023-04-20T15:12:46.138Z,6.43
2023-04-20T15:15:13.658Z,5.50
2023-04-20T15:17:41.254Z,5.37
2023-04-20T15:20:08.884Z,5.93
2023-04-20T15:22:36.416Z,6.93
2023-04-20T15:25:04.761Z,8.40
2023-04-20T15:27:32.304Z,5.57
2023-04-20T15:29:59.828Z,7.23
2023-04-20T15:32:27.501Z,7.53
2023-04-20T15:34:54.926Z,7.63
2023-04-20T15:37:23.236Z,6.13
2023-04-20T15:39:50.806Z,4.97
2023-04-20T15:42:18.365Z,8.57
2023-04-20T15:44:45.882Z,4.80
2023-04-20T15:47:14.264Z,7.07
2023-04-20T15:49:41.798Z,7.53
2023-04-20T15:52:09.316Z,6.20
2023-04-20T15:54:36.974Z,6.90
2023-04-20T15:57:04.526Z,4.20
2023-04-20T15:59:32.035Z,4.80
2023-04-20T16:01:59.671Z,4.30
2023-04-20T16:04:27.208Z,7.03
2023-04-20T16:06:54.710Z,9.20
2023-04-20T16:09:23.793Z,6.43
2023-04-20T16:11:50.061Z,8.63
2023-04-20T16:14:18.678Z,3.53
2023-04-20T16:16:45.935Z,6.03
2023-04-20T16:19:16.327Z,4.30
2023-04-20T16:21:44.613Z,4.47
2023-04-20T16:24:12.196Z,5.20
2023-04-20T16:26:41.213Z,5.50
2023-04-20T16:29:08.039Z,5.23
2023-04-20T16:31:35.648Z,5.13
2023-04-20T16:34:03.139Z,3.70
2023-04-20T16:36:30.671Z,5.57
2023-04-20T16:38:59.169Z,6.63
2023-04-20T16:41:26.709Z,9.83
2023-04-20T16:43:55.004Z,10.23
2023-04-20T16:46:22.861Z,8.63
2023-04-20T16:48:51.166Z,9.00
2023-04-20T16:51:18.701Z,7.77
2023-04-20T16:53:46.273Z,5.73
2023-04-20T16:56:13.825Z,7.53
2023-04-20T16:58:41.351Z,6.00
2023-04-20T17:01:09.718Z,7.43
2023-04-20T17:03:37.467Z,7.30
2023-04-20T17:06:04.757Z,6.37
2023-04-20T17:08:33.087Z,7.13
2023-04-20T17:11:00.613Z,9.20
2023-04-20T17:13:28.141Z,7.20
2023-04-20T17:15:56.418Z,7.93
2023-04-20T17:18:23.797Z,6.80
2023-04-20T17:20:51.331Z,8.77
2023-04-20T17:23:20.063Z,9.73
2023-04-20T17:25:47.600Z,8.23
2023-04-20T17:28:15.137Z,8.30
2023-04-20T17:30:42.753Z,9.27
2023-04-20T17:33:10.294Z,8.83
2023-04-20T17:35:38.210Z,11.00
2023-04-20T17:38:05.436Z,8.53
2023-04-20T17:40:33.039Z,5.17
2023-04-20T17:43:00.542Z,4.43
2023-04-20T17:45:28.914Z,4.10
2023-04-20T17:47:56.599Z,3.47
2023-04-20T17:50:24.848Z,2.50
2023-04-20T17:52:52.409Z,2.13
2023-04-20T17:55:19.936Z,2.70
2023-04-20T17:57:48.226Z,4.13
2023-04-20T18:00:15.949Z,3.60
2023-04-20T18:02:43.556Z,3.80
2023-04-20T18:05:11.015Z,2.92
2023-04-20T18:07:38.629Z,2.77
2023-04-20T18:10:06.257Z,2.63
2023-04-20T18:12:33.770Z,2.97
2023-04-20T18:15:02.113Z,3.40
2023-04-20T18:17:29.706Z,2.77
2023-04-20T18:19:57.162Z,3.93
2023-04-20T18:22:25.493Z,4.37
2023-04-20T18:24:53.028Z,2.97
2023-04-20T18:27:20.550Z,5.53
2023-04-20T18:29:48.140Z,6.67
2023-04-20T18:32:15.654Z,3.67
2023-04-20T18:34:43.191Z,3.70
2023-04-20T18:37:10.754Z,4.32
2023-04-20T18:39:38.284Z,3.73
2023-04-20T18:42:05.810Z,4.70
2023-04-20T18:44:34.333Z,4.77
2023-04-20T18:47:02.559Z,4.50
2023-04-20T18:49:30.023Z,4.30
2023-04-20T18:51:57.586Z,4.93
2023-04-20T18:54:25.900Z,5.10
2023-04-20T18:56:53.432Z,4.80
2023-04-20T18:59:21.019Z,6.03
2023-04-20T19:01:48.547Z,4.93
2023-04-20T19:04:17.040Z,4.80
2023-04-20T19:06:44.409Z,5.07
2023-04-20T19:09:11.941Z,5.63
2023-04-20T19:11:40.226Z,6.50
2023-04-20T19:14:07.778Z,6.73
2023-04-20T19:16:35.397Z,7.83
2023-04-20T19:19:02.840Z,7.33
2023-04-20T19:21:30.425Z,6.13
2023-04-20T19:23:57.938Z,6.97
2023-04-20T19:26:25.478Z,7.03
2023-04-20T19:28:53.096Z,6.27
2023-04-20T19:31:20.793Z,6.17
2023-04-20T19:33:48.164Z,6.10
2023-04-20T19:36:15.751Z,6.93
2023-04-20T19:38:43.287Z,6.40
2023-04-20T19:41:10.811Z,7.10
2023-04-20T19:43:39.158Z,6.47
2023-04-20T19:46:06.731Z,7.13
2023-04-20T19:48:34.207Z,6.95
2023-04-20T19:51:03.587Z,7.10
2023-04-20T19:53:31.145Z,6.43
2023-04-20T19:55:58.668Z,7.13
2023-04-20T19:58:27.048Z,11.00
2023-04-20T20:00:54.721Z,7.33
2023-04-20T20:03:22.235Z,7.40
2023-04-20T20:05:49.684Z,8.30
2023-04-20T20:08:18.013Z,6.07
2023-04-20T20:10:45.563Z,6.93
2023-04-20T20:13:13.130Z,8.48
2023-04-20T20:15:40.731Z,8.23
2023-04-20T20:18:08.302Z,7.67
2023-04-20T20:20:35.824Z,7.87
2023-04-20T20:23:03.348Z,9.50
2023-04-20T20:25:30.880Z,9.07
2023-04-20T20:27:59.217Z,9.33
2023-04-20T20:30:26.772Z,8.50
2023-04-20T20:32:54.355Z,9.43
2023-04-20T20:35:22.176Z,10.27
2023-04-20T20:37:49.699Z,9.43
2023-04-20T20:40:17.223Z,8.43
2023-04-20T20:42:44.776Z,10.53
2023-04-20T20:45:12.324Z,8.77
2023-04-20T20:47:39.887Z,8.73
2023-04-20T20:50:07.562Z,8.97
2023-04-20T20:52:35.195Z,11.40
2023-04-20T20:55:02.698Z,8.00
2023-04-20T20:57:30.991Z,7.27
2023-04-20T20:59:59.321Z,9.03
2023-04-20T21:02:26.930Z,9.30
2023-04-20T21:04:54.382Z,8.83
2023-04-20T21:07:22.879Z,10.27
2023-04-20T21:09:50.411Z,9.43
2023-04-20T21:12:18.711Z,9.67
2023-04-20T21:14:46.284Z,9.50
2023-04-20T21:17:13.831Z,9.77
2023-04-20T21:19:42.109Z,10.97
2023-04-20T21:22:09.683Z,11.70
2023-04-20T21:24:37.245Z,11.83
2023-04-20T21:27:04.798Z,12.00
2023-04-20T21:29:32.372Z,12.57
2023-04-20T21:31:59.961Z,13.63
2023-04-20T21:34:27.418Z,12.30
2023-04-20T21:36:55.024Z,12.50
2023-04-20T21:39:22.550Z,13.47
2023-04-20T21:41:50.843Z,13.13
2023-04-20T21:44:19.183Z,16.43
2023-04-20T21:46:46.748Z,11.47
2023-04-20T21:49:14.255Z,11.93
2023-04-20T21:51:41.946Z,14.77
2023-04-20T21:54:09.489Z,15.73
2023-04-20T21:56:37.105Z,12.87
2023-04-20T21:59:05.468Z,14.43
2023-04-20T22:01:33.041Z,14.33
2023-04-20T22:04:00.814Z,15.30
2023-04-20T22:06:28.120Z,13.53
2023-04-20T22:08:55.644Z,15.17
2023-04-20T22:11:23.178Z,14.50
2023-04-20T22:13:51.545Z,14.00
2023-04-20T22:16:19.085Z,14.10
2023-04-20T22:18:46.599Z,15.57
2023-04-20T22:21:14.194Z,14.30
2023-04-20T22:23:41.717Z,12.77
2023-04-20T22:26:09.245Z,14.00
2023-04-20T22:28:36.818Z,13.53
2023-04-20T22:31:04.349Z,15.03
2023-04-20T22:33:31.859Z,12.63
2023-04-20T22:35:59.532Z,13.73
2023-04-20T22:38:27.110Z,15.83
2023-04-20T22:40:54.603Z,15.00
2023-04-20T22:43:22.944Z,15.27
2023-04-20T22:45:50.499Z,15.27
2023-04-20T22:48:18.031Z,15.13
2023-04-20T22:50:45.578Z,15.23
2023-04-20T22:53:13.898Z,13.63
2023-04-20T22:55:41.445Z,14.13
2023-04-20T22:58:09.048Z,15.03
2023-04-20T23:00:36.974Z,13.87
2023-04-20T23:03:04.636Z,14.03
2023-04-20T23:05:32.792Z,17.60
2023-04-20T23:08:00.339Z,15.40
2023-04-20T23:10:30.805Z,13.60
2023-04-20T23:12:58.320Z,13.57
2023-04-20T23:15:26.684Z,16.50
2023-04-20T23:17:54.982Z,16.57
2023-04-20T23:20:23.267Z,14.90
2023-04-20T23:22:50.846Z,14.57
2023-04-20T23:25:18.375Z,15.60
2023-04-20T23:27:45.912Z,18.05
2023-04-20T23:30:14.244Z,17.10
2023-04-20T23:32:44.312Z,17.50
2023-04-20T23:35:09.460Z,16.77
2023-04-20T23:37:37.631Z,15.30
2023-04-20T23:40:05.306Z,15.27
2023-04-20T23:42:32.797Z,15.10
2023-04-20T23:45:01.153Z,16.83
2023-04-20T23:47:28.744Z,17.67
2023-04-20T23:49:56.258Z,16.93
2023-04-20T23:52:23.873Z,17.83
2023-04-20T23:54:52.184Z,16.17
2023-04-20T23:57:19.723Z,18.03
2023-04-20T23:59:47.411Z,17.37
